<?xml version="1.0" encoding="UTF-8" standalone="no" ?><gpx xmlns="http://www.topografix.com/GPX/1/1" xmlns:gpxx="http://www.garmin.com/xmlschemas/GpxExtensions/v3" xmlns:wptx1="http://www.garmin.com/xmlschemas/WaypointExtension/v1" xmlns:gpxtpx="http://www.garmin.com/xmlschemas/TrackPointExtension/v1" creator="GuideVTT.com" version="1.1" xmlns:xsi="http://www.w3.org/2001/XMLSchema-instance" xsi:schemaLocation="http://www.topografix.com/GPX/1/1 http://www.topografix.com/GPX/1/1/gpx.xsd http://www.garmin.com/xmlschemas/GpxExtensions/v3 http://www8.garmin.com/xmlschemas/GpxExtensionsv3.xsd http://www.garmin.com/xmlschemas/WaypointExtension/v1 http://www8.garmin.com/xmlschemas/WaypointExtensionv1.xsd http://www.garmin.com/xmlschemas/TrackPointExtension/v1 http://www.garmin.com/xmlschemas/TrackPointExtensionv1.xsd">
<metadata><link href="http://www.garmin.com"><text>Garmin International</text></link><time>2013-06-22T15:13:50Z</time></metadata>
<trk><name>parcours20.gpx</name><extensions><gpxx:TrackExtension><gpxx:DisplayColor>Cyan</gpxx:DisplayColor></gpxx:TrackExtension></extensions><trkseg>
<trkpt lat="46.50701670" lon="6.76873330"><ele>671</ele><time>2004-04-17T12:18:02Z</time></trkpt>
<trkpt lat="46.50671670" lon="6.77008330"><ele>674</ele><time>2004-04-17T12:18:37Z</time></trkpt>
<trkpt lat="46.50650000" lon="6.77070000"><ele>673</ele><time>2004-04-17T12:19:08Z</time></trkpt>
<trkpt lat="46.50653330" lon="6.77081670"><ele>673</ele><time>2004-04-17T12:19:50Z</time></trkpt>
<trkpt lat="46.50650000" lon="6.77121670"><ele>674</ele><time>2004-04-17T12:20:02Z</time></trkpt>
<trkpt lat="46.50640000" lon="6.77203330"><ele>674</ele><time>2004-04-17T12:20:12Z</time></trkpt>
<trkpt lat="46.50635000" lon="6.77223330"><ele>674</ele><time>2004-04-17T12:20:14Z</time></trkpt>
<trkpt lat="46.50620000" lon="6.77263330"><ele>673</ele><time>2004-04-17T12:20:22Z</time></trkpt>
<trkpt lat="46.50625000" lon="6.77340000"><ele>673</ele><time>2004-04-17T12:20:31Z</time></trkpt>
<trkpt lat="46.50640000" lon="6.77375000"><ele>673</ele><time>2004-04-17T12:20:35Z</time></trkpt>
<trkpt lat="46.50708330" lon="6.77460000"><ele>674</ele><time>2004-04-17T12:20:49Z</time></trkpt>
<trkpt lat="46.50778330" lon="6.77523330"><ele>673</ele><time>2004-04-17T12:21:00Z</time></trkpt>
<trkpt lat="46.50856670" lon="6.77600000"><ele>672</ele><time>2004-04-17T12:21:11Z</time></trkpt>
<trkpt lat="46.51036670" lon="6.77731670"><ele>667</ele><time>2004-04-17T12:21:39Z</time></trkpt>
<trkpt lat="46.51111670" lon="6.77806670"><ele>665</ele><time>2004-04-17T12:21:52Z</time></trkpt>
<trkpt lat="46.51176670" lon="6.77881670"><ele>665</ele><time>2004-04-17T12:22:06Z</time></trkpt>
<trkpt lat="46.51238330" lon="6.77926670"><ele>666</ele><time>2004-04-17T12:22:18Z</time></trkpt>
<trkpt lat="46.51386670" lon="6.78051670"><ele>672</ele><time>2004-04-17T12:22:51Z</time></trkpt>
<trkpt lat="46.51500000" lon="6.78138330"><ele>676</ele><time>2004-04-17T12:23:30Z</time></trkpt>
<trkpt lat="46.51528330" lon="6.78243330"><ele>674</ele><time>2004-04-17T12:23:44Z</time></trkpt>
<trkpt lat="46.51546670" lon="6.78271670"><ele>674</ele><time>2004-04-17T12:23:48Z</time></trkpt>
<trkpt lat="46.51556670" lon="6.78280000"><ele>674</ele><time>2004-04-17T12:23:50Z</time></trkpt>
<trkpt lat="46.51610000" lon="6.78303330"><ele>678</ele><time>2004-04-17T12:24:08Z</time></trkpt>
<trkpt lat="46.51736670" lon="6.78405000"><ele>690</ele><time>2004-04-17T12:25:10Z</time></trkpt>
<trkpt lat="46.51790000" lon="6.78428330"><ele>694</ele><time>2004-04-17T12:25:35Z</time></trkpt>
<trkpt lat="46.51871670" lon="6.78486670"><ele>704</ele><time>2004-04-17T12:26:18Z</time></trkpt>
<trkpt lat="46.51918330" lon="6.78530000"><ele>709</ele><time>2004-04-17T12:26:43Z</time></trkpt>
<trkpt lat="46.51945000" lon="6.78561670"><ele>710</ele><time>2004-04-17T12:26:56Z</time></trkpt>
<trkpt lat="46.51980000" lon="6.78590000"><ele>712</ele><time>2004-04-17T12:27:08Z</time></trkpt>
<trkpt lat="46.52028330" lon="6.78615000"><ele>714</ele><time>2004-04-17T12:27:24Z</time></trkpt>
<trkpt lat="46.52093330" lon="6.78671670"><ele>717</ele><time>2004-04-17T12:27:48Z</time></trkpt>
<trkpt lat="46.52201670" lon="6.78725000"><ele>724</ele><time>2004-04-17T12:28:34Z</time></trkpt>
<trkpt lat="46.52388330" lon="6.78860000"><ele>725</ele><time>2004-04-17T12:29:27Z</time></trkpt>
<trkpt lat="46.52531670" lon="6.78913330"><ele>729</ele><time>2004-04-17T12:29:57Z</time></trkpt>
<trkpt lat="46.52553330" lon="6.78951670"><ele>731</ele><time>2004-04-17T12:30:05Z</time></trkpt>
<trkpt lat="46.52558330" lon="6.78981670"><ele>731</ele><time>2004-04-17T12:30:09Z</time></trkpt>
<trkpt lat="46.52581670" lon="6.79026670"><ele>731</ele><time>2004-04-17T12:30:16Z</time></trkpt>
<trkpt lat="46.52665000" lon="6.79096670"><ele>729</ele><time>2004-04-17T12:30:32Z</time></trkpt>
<trkpt lat="46.52703330" lon="6.79115000"><ele>728</ele><time>2004-04-17T12:30:39Z</time></trkpt>
<trkpt lat="46.52755000" lon="6.79160000"><ele>727</ele><time>2004-04-17T12:30:50Z</time></trkpt>
<trkpt lat="46.52843330" lon="6.79255000"><ele>721</ele><time>2004-04-17T12:31:08Z</time></trkpt>
<trkpt lat="46.52926670" lon="6.79351670"><ele>712</ele><time>2004-04-17T12:31:19Z</time></trkpt>
<trkpt lat="46.52963330" lon="6.79398330"><ele>711</ele><time>2004-04-17T12:31:24Z</time></trkpt>
<trkpt lat="46.53126670" lon="6.79508330"><ele>704</ele><time>2004-04-17T12:31:48Z</time></trkpt>
<trkpt lat="46.53135000" lon="6.79518330"><ele>700</ele><time>2004-04-17T12:33:21Z</time></trkpt>
<trkpt lat="46.53173330" lon="6.79583330"><ele>704</ele><time>2004-04-17T12:33:42Z</time></trkpt>
<trkpt lat="46.53193330" lon="6.79606670"><ele>706</ele><time>2004-04-17T12:33:51Z</time></trkpt>
<trkpt lat="46.53213330" lon="6.79636670"><ele>707</ele><time>2004-04-17T12:34:01Z</time></trkpt>
<trkpt lat="46.53246670" lon="6.79666670"><ele>710</ele><time>2004-04-17T12:34:14Z</time></trkpt>
<trkpt lat="46.53320000" lon="6.79716670"><ele>716</ele><time>2004-04-17T12:34:43Z</time></trkpt>
<trkpt lat="46.53360000" lon="6.79758330"><ele>719</ele><time>2004-04-17T12:34:59Z</time></trkpt>
<trkpt lat="46.53390000" lon="6.79818330"><ele>721</ele><time>2004-04-17T12:35:15Z</time></trkpt>
<trkpt lat="46.53410000" lon="6.79883330"><ele>723</ele><time>2004-04-17T12:35:30Z</time></trkpt>
<trkpt lat="46.53446670" lon="6.79928330"><ele>723</ele><time>2004-04-17T12:35:42Z</time></trkpt>
<trkpt lat="46.53546670" lon="6.79978330"><ele>728</ele><time>2004-04-17T12:36:21Z</time></trkpt>
<trkpt lat="46.53571670" lon="6.80000000"><ele>732</ele><time>2004-04-17T12:36:32Z</time></trkpt>
<trkpt lat="46.53616670" lon="6.80050000"><ele>736</ele><time>2004-04-17T12:36:55Z</time></trkpt>
<trkpt lat="46.53693330" lon="6.80126670"><ele>741</ele><time>2004-04-17T12:37:26Z</time></trkpt>
<trkpt lat="46.53746670" lon="6.80195000"><ele>741</ele><time>2004-04-17T12:37:51Z</time></trkpt>
<trkpt lat="46.53753330" lon="6.80203330"><ele>741</ele><time>2004-04-17T12:38:33Z</time></trkpt>
<trkpt lat="46.53775000" lon="6.80248330"><ele>742</ele><time>2004-04-17T12:38:43Z</time></trkpt>
<trkpt lat="46.53813330" lon="6.80306670"><ele>740</ele><time>2004-04-17T12:38:56Z</time></trkpt>
<trkpt lat="46.53848330" lon="6.80348330"><ele>739</ele><time>2004-04-17T12:39:07Z</time></trkpt>
<trkpt lat="46.53916670" lon="6.80443330"><ele>740</ele><time>2004-04-17T12:39:40Z</time></trkpt>
<trkpt lat="46.53941670" lon="6.80473330"><ele>741</ele><time>2004-04-17T12:39:49Z</time></trkpt>
<trkpt lat="46.53981670" lon="6.80503330"><ele>740</ele><time>2004-04-17T12:40:01Z</time></trkpt>
<trkpt lat="46.54000000" lon="6.80526670"><ele>740</ele><time>2004-04-17T12:40:08Z</time></trkpt>
<trkpt lat="46.54023330" lon="6.80570000"><ele>741</ele><time>2004-04-17T12:40:16Z</time></trkpt>
<trkpt lat="46.54066670" lon="6.80635000"><ele>738</ele><time>2004-04-17T12:40:29Z</time></trkpt>
<trkpt lat="46.54113330" lon="6.80680000"><ele>734</ele><time>2004-04-17T12:40:41Z</time></trkpt>
<trkpt lat="46.54151670" lon="6.80765000"><ele>729</ele><time>2004-04-17T12:40:57Z</time></trkpt>
<trkpt lat="46.54151670" lon="6.80771670"><ele>729</ele><time>2004-04-17T12:41:05Z</time></trkpt>
<trkpt lat="46.54193330" lon="6.80833330"><ele>725</ele><time>2004-04-17T12:41:53Z</time></trkpt>
<trkpt lat="46.54275000" lon="6.80971670"><ele>716</ele><time>2004-04-17T12:42:24Z</time></trkpt>
<trkpt lat="46.54328330" lon="6.81031670"><ele>711</ele><time>2004-04-17T12:42:40Z</time></trkpt>
<trkpt lat="46.54338330" lon="6.81055000"><ele>711</ele><time>2004-04-17T12:42:44Z</time></trkpt>
<trkpt lat="46.54350000" lon="6.81113330"><ele>711</ele><time>2004-04-17T12:42:55Z</time></trkpt>
<trkpt lat="46.54355000" lon="6.81115000"><ele>711</ele><time>2004-04-17T12:43:00Z</time></trkpt>
<trkpt lat="46.54386670" lon="6.81061670"><ele>714</ele><time>2004-04-17T12:43:34Z</time></trkpt>
<trkpt lat="46.54390000" lon="6.81040000"><ele>716</ele><time>2004-04-17T12:43:48Z</time></trkpt>
<trkpt lat="46.54383330" lon="6.80996670"><ele>721</ele><time>2004-04-17T12:44:09Z</time></trkpt>
<trkpt lat="46.54380000" lon="6.80988330"><ele>722</ele><time>2004-04-17T12:44:14Z</time></trkpt>
<trkpt lat="46.54388330" lon="6.80950000"><ele>726</ele><time>2004-04-17T12:44:35Z</time></trkpt>
<trkpt lat="46.54401670" lon="6.80923330"><ele>728</ele><time>2004-04-17T12:44:48Z</time></trkpt>
<trkpt lat="46.54415000" lon="6.80905000"><ele>729</ele><time>2004-04-17T12:45:00Z</time></trkpt>
<trkpt lat="46.54431670" lon="6.80896670"><ele>729</ele><time>2004-04-17T12:45:11Z</time></trkpt>
<trkpt lat="46.54438330" lon="6.80900000"><ele>730</ele><time>2004-04-17T12:45:15Z</time></trkpt>
<trkpt lat="46.54493330" lon="6.81010000"><ele>733</ele><time>2004-04-17T12:45:43Z</time></trkpt>
<trkpt lat="46.54521670" lon="6.81045000"><ele>734</ele><time>2004-04-17T12:45:52Z</time></trkpt>
<trkpt lat="46.54571670" lon="6.81061670"><ele>736</ele><time>2004-04-17T12:46:05Z</time></trkpt>
<trkpt lat="46.54596670" lon="6.81076670"><ele>736</ele><time>2004-04-17T12:46:13Z</time></trkpt>
<trkpt lat="46.54655000" lon="6.81093330"><ele>730</ele><time>2004-04-17T12:46:37Z</time></trkpt>
<trkpt lat="46.54681670" lon="6.81110000"><ele>728</ele><time>2004-04-17T12:46:48Z</time></trkpt>
<trkpt lat="46.54761670" lon="6.81210000"><ele>716</ele><time>2004-04-17T12:47:22Z</time></trkpt>
<trkpt lat="46.54781670" lon="6.81201670"><ele>713</ele><time>2004-04-17T12:47:30Z</time></trkpt>
<trkpt lat="46.54783330" lon="6.81166670"><ele>712</ele><time>2004-04-17T12:47:38Z</time></trkpt>
<trkpt lat="46.54763330" lon="6.81093330"><ele>709</ele><time>2004-04-17T12:48:33Z</time></trkpt>
<trkpt lat="46.54753330" lon="6.81023330"><ele>709</ele><time>2004-04-17T12:48:50Z</time></trkpt>
<trkpt lat="46.54768330" lon="6.80983330"><ele>706</ele><time>2004-04-17T12:49:02Z</time></trkpt>
<trkpt lat="46.54811670" lon="6.80951670"><ele>706</ele><time>2004-04-17T12:49:19Z</time></trkpt>
<trkpt lat="46.54865000" lon="6.80963330"><ele>706</ele><time>2004-04-17T12:49:37Z</time></trkpt>
<trkpt lat="46.55006670" lon="6.81136670"><ele>706</ele><time>2004-04-17T12:50:09Z</time></trkpt>
<trkpt lat="46.55015000" lon="6.81161670"><ele>705</ele><time>2004-04-17T12:50:12Z</time></trkpt>
<trkpt lat="46.55021670" lon="6.81210000"><ele>702</ele><time>2004-04-17T12:50:17Z</time></trkpt>
<trkpt lat="46.55038330" lon="6.81243330"><ele>699</ele><time>2004-04-17T12:50:22Z</time></trkpt>
<trkpt lat="46.55080000" lon="6.81301670"><ele>691</ele><time>2004-04-17T12:50:33Z</time></trkpt>
<trkpt lat="46.55133330" lon="6.81358330"><ele>682</ele><time>2004-04-17T12:50:42Z</time></trkpt>
<trkpt lat="46.55163330" lon="6.81385000"><ele>677</ele><time>2004-04-17T12:50:46Z</time></trkpt>
<trkpt lat="46.55206670" lon="6.81460000"><ele>669</ele><time>2004-04-17T12:50:54Z</time></trkpt>
<trkpt lat="46.55231670" lon="6.81496670"><ele>664</ele><time>2004-04-17T12:51:02Z</time></trkpt>
<trkpt lat="46.55245000" lon="6.81505000"><ele>662</ele><time>2004-04-17T12:51:07Z</time></trkpt>
<trkpt lat="46.55288330" lon="6.81486670"><ele>656</ele><time>2004-04-17T12:51:15Z</time></trkpt>
<trkpt lat="46.55330000" lon="6.81433330"><ele>649</ele><time>2004-04-17T12:51:23Z</time></trkpt>
<trkpt lat="46.55340000" lon="6.81411670"><ele>643</ele><time>2004-04-17T12:52:11Z</time></trkpt>
<trkpt lat="46.55351670" lon="6.81408330"><ele>642</ele><time>2004-04-17T12:52:17Z</time></trkpt>
<trkpt lat="46.55418330" lon="6.81493330"><ele>639</ele><time>2004-04-17T12:52:29Z</time></trkpt>
<trkpt lat="46.55471670" lon="6.81586670"><ele>637</ele><time>2004-04-17T12:52:41Z</time></trkpt>
<trkpt lat="46.55505000" lon="6.81700000"><ele>632</ele><time>2004-04-17T12:52:51Z</time></trkpt>
<trkpt lat="46.55513330" lon="6.81761670"><ele>629</ele><time>2004-04-17T12:52:56Z</time></trkpt>
<trkpt lat="46.55531670" lon="6.81788330"><ele>628</ele><time>2004-04-17T12:53:00Z</time></trkpt>
<trkpt lat="46.55556670" lon="6.81810000"><ele>625</ele><time>2004-04-17T12:53:04Z</time></trkpt>
<trkpt lat="46.55581670" lon="6.81851670"><ele>622</ele><time>2004-04-17T12:53:12Z</time></trkpt>
<trkpt lat="46.55606670" lon="6.81878330"><ele>628</ele><time>2004-04-17T12:55:56Z</time></trkpt>
<trkpt lat="46.55615000" lon="6.81896670"><ele>629</ele><time>2004-04-17T12:56:02Z</time></trkpt>
<trkpt lat="46.55696670" lon="6.81913330"><ele>627</ele><time>2004-04-17T12:56:36Z</time></trkpt>
<trkpt lat="46.55725000" lon="6.81906670"><ele>627</ele><time>2004-04-17T12:56:53Z</time></trkpt>
<trkpt lat="46.55755000" lon="6.81891670"><ele>629</ele><time>2004-04-17T12:57:10Z</time></trkpt>
<trkpt lat="46.55786670" lon="6.81883330"><ele>630</ele><time>2004-04-17T12:57:27Z</time></trkpt>
<trkpt lat="46.55791670" lon="6.81898330"><ele>631</ele><time>2004-04-17T12:57:33Z</time></trkpt>
<trkpt lat="46.55800000" lon="6.81966670"><ele>630</ele><time>2004-04-17T12:57:47Z</time></trkpt>
<trkpt lat="46.55803330" lon="6.82016670"><ele>633</ele><time>2004-04-17T12:58:08Z</time></trkpt>
<trkpt lat="46.55811670" lon="6.82040000"><ele>634</ele><time>2004-04-17T12:58:27Z</time></trkpt>
<trkpt lat="46.55826670" lon="6.82071670"><ele>635</ele><time>2004-04-17T12:58:40Z</time></trkpt>
<trkpt lat="46.55851670" lon="6.82115000"><ele>635</ele><time>2004-04-17T12:58:56Z</time></trkpt>
<trkpt lat="46.55866670" lon="6.82153330"><ele>637</ele><time>2004-04-17T12:59:11Z</time></trkpt>
<trkpt lat="46.55883330" lon="6.82185000"><ele>640</ele><time>2004-04-17T12:59:23Z</time></trkpt>
<trkpt lat="46.55925000" lon="6.82230000"><ele>637</ele><time>2004-04-17T12:59:41Z</time></trkpt>
<trkpt lat="46.55955000" lon="6.82255000"><ele>637</ele><time>2004-04-17T12:59:55Z</time></trkpt>
<trkpt lat="46.55986670" lon="6.82263330"><ele>636</ele><time>2004-04-17T13:00:09Z</time></trkpt>
<trkpt lat="46.56010000" lon="6.82263330"><ele>638</ele><time>2004-04-17T13:00:40Z</time></trkpt>
<trkpt lat="46.56085000" lon="6.82281670"><ele>639</ele><time>2004-04-17T13:01:04Z</time></trkpt>
<trkpt lat="46.56146670" lon="6.82310000"><ele>642</ele><time>2004-04-17T13:01:25Z</time></trkpt>
<trkpt lat="46.56255000" lon="6.82366670"><ele>642</ele><time>2004-04-17T13:02:01Z</time></trkpt>
<trkpt lat="46.56365000" lon="6.82460000"><ele>638</ele><time>2004-04-17T13:02:35Z</time></trkpt>
<trkpt lat="46.56465000" lon="6.82493330"><ele>642</ele><time>2004-04-17T13:02:46Z</time></trkpt>
<trkpt lat="46.56626670" lon="6.82655000"><ele>644</ele><time>2004-04-17T13:03:34Z</time></trkpt>
<trkpt lat="46.56666670" lon="6.82690000"><ele>642</ele><time>2004-04-17T13:03:43Z</time></trkpt>
<trkpt lat="46.56693330" lon="6.82696670"><ele>641</ele><time>2004-04-17T13:04:27Z</time></trkpt>
<trkpt lat="46.56731670" lon="6.82695000"><ele>639</ele><time>2004-04-17T13:04:37Z</time></trkpt>
<trkpt lat="46.56751670" lon="6.82705000"><ele>639</ele><time>2004-04-17T13:04:41Z</time></trkpt>
<trkpt lat="46.56816670" lon="6.82766670"><ele>637</ele><time>2004-04-17T13:04:56Z</time></trkpt>
<trkpt lat="46.56875000" lon="6.82803330"><ele>635</ele><time>2004-04-17T13:05:08Z</time></trkpt>
<trkpt lat="46.56881670" lon="6.82806670"><ele>635</ele><time>2004-04-17T13:05:09Z</time></trkpt>
<trkpt lat="46.56968330" lon="6.82785000"><ele>632</ele><time>2004-04-17T13:05:24Z</time></trkpt>
<trkpt lat="46.56985000" lon="6.82788330"><ele>631</ele><time>2004-04-17T13:05:28Z</time></trkpt>
<trkpt lat="46.56991670" lon="6.82800000"><ele>631</ele><time>2004-04-17T13:05:30Z</time></trkpt>
<trkpt lat="46.57001670" lon="6.82836670"><ele>630</ele><time>2004-04-17T13:05:35Z</time></trkpt>
<trkpt lat="46.57015000" lon="6.82861670"><ele>630</ele><time>2004-04-17T13:05:55Z</time></trkpt>
<trkpt lat="46.57025000" lon="6.82875000"><ele>630</ele><time>2004-04-17T13:06:30Z</time></trkpt>
<trkpt lat="46.57028330" lon="6.82870000"><ele>630</ele><time>2004-04-17T13:06:33Z</time></trkpt>
<trkpt lat="46.57056670" lon="6.82855000"><ele>630</ele><time>2004-04-17T13:06:40Z</time></trkpt>
<trkpt lat="46.57078330" lon="6.82833330"><ele>631</ele><time>2004-04-17T13:06:46Z</time></trkpt>
<trkpt lat="46.57083330" lon="6.82821670"><ele>631</ele><time>2004-04-17T13:06:49Z</time></trkpt>
<trkpt lat="46.57078330" lon="6.82786670"><ele>630</ele><time>2004-04-17T13:06:54Z</time></trkpt>
<trkpt lat="46.57085000" lon="6.82748330"><ele>629</ele><time>2004-04-17T13:07:00Z</time></trkpt>
<trkpt lat="46.57090000" lon="6.82745000"><ele>629</ele><time>2004-04-17T13:07:01Z</time></trkpt>
<trkpt lat="46.57121670" lon="6.82706670"><ele>630</ele><time>2004-04-17T13:07:15Z</time></trkpt>
<trkpt lat="46.57121670" lon="6.82690000"><ele>631</ele><time>2004-04-17T13:07:24Z</time></trkpt>
<trkpt lat="46.57101670" lon="6.82646670"><ele>631</ele><time>2004-04-17T13:07:34Z</time></trkpt>
<trkpt lat="46.57066670" lon="6.82543330"><ele>629</ele><time>2004-04-17T13:07:46Z</time></trkpt>
<trkpt lat="46.57015000" lon="6.82360000"><ele>623</ele><time>2004-04-17T13:08:10Z</time></trkpt>
<trkpt lat="46.56988330" lon="6.82281670"><ele>623</ele><time>2004-04-17T13:08:20Z</time></trkpt>
<trkpt lat="46.56956670" lon="6.82233330"><ele>620</ele><time>2004-04-17T13:08:39Z</time></trkpt>
<trkpt lat="46.56948330" lon="6.82226670"><ele>617</ele><time>2004-04-17T13:09:15Z</time></trkpt>
<trkpt lat="46.56926670" lon="6.82235000"><ele>616</ele><time>2004-04-17T13:09:23Z</time></trkpt>
<trkpt lat="46.56896670" lon="6.82215000"><ele>616</ele><time>2004-04-17T13:09:30Z</time></trkpt>
<trkpt lat="46.56880000" lon="6.82098330"><ele>613</ele><time>2004-04-17T13:09:49Z</time></trkpt>
<trkpt lat="46.56868330" lon="6.82056670"><ele>611</ele><time>2004-04-17T13:09:59Z</time></trkpt>
<trkpt lat="46.56850000" lon="6.82003330"><ele>609</ele><time>2004-04-17T13:10:12Z</time></trkpt>
<trkpt lat="46.56836670" lon="6.81958330"><ele>607</ele><time>2004-04-17T13:10:23Z</time></trkpt>
<trkpt lat="46.56826670" lon="6.81891670"><ele>606</ele><time>2004-04-17T13:10:35Z</time></trkpt>
<trkpt lat="46.56821670" lon="6.81838330"><ele>608</ele><time>2004-04-17T13:10:46Z</time></trkpt>
<trkpt lat="46.56823330" lon="6.81788330"><ele>607</ele><time>2004-04-17T13:10:56Z</time></trkpt>
<trkpt lat="46.56835000" lon="6.81756670"><ele>607</ele><time>2004-04-17T13:11:02Z</time></trkpt>
<trkpt lat="46.56881670" lon="6.81670000"><ele>609</ele><time>2004-04-17T13:11:19Z</time></trkpt>
<trkpt lat="46.56906670" lon="6.81598330"><ele>609</ele><time>2004-04-17T13:11:33Z</time></trkpt>
<trkpt lat="46.56910000" lon="6.81516670"><ele>607</ele><time>2004-04-17T13:11:46Z</time></trkpt>
<trkpt lat="46.56906670" lon="6.81511670"><ele>607</ele><time>2004-04-17T13:11:47Z</time></trkpt>
<trkpt lat="46.56868330" lon="6.81493330"><ele>608</ele><time>2004-04-17T13:11:54Z</time></trkpt>
<trkpt lat="46.56838330" lon="6.81463330"><ele>611</ele><time>2004-04-17T13:12:04Z</time></trkpt>
<trkpt lat="46.56800000" lon="6.81448330"><ele>614</ele><time>2004-04-17T13:12:16Z</time></trkpt>
<trkpt lat="46.56590000" lon="6.81426670"><ele>626</ele><time>2004-04-17T13:13:19Z</time></trkpt>
<trkpt lat="46.56555000" lon="6.81406670"><ele>630</ele><time>2004-04-17T13:13:51Z</time></trkpt>
<trkpt lat="46.56553330" lon="6.81403330"><ele>629</ele><time>2004-04-17T13:13:55Z</time></trkpt>
<trkpt lat="46.56523330" lon="6.81383330"><ele>629</ele><time>2004-04-17T13:14:04Z</time></trkpt>
<trkpt lat="46.56383330" lon="6.81341670"><ele>630</ele><time>2004-04-17T13:14:36Z</time></trkpt>
<trkpt lat="46.56313330" lon="6.81326670"><ele>631</ele><time>2004-04-17T13:14:52Z</time></trkpt>
<trkpt lat="46.56156670" lon="6.81316670"><ele>634</ele><time>2004-04-17T13:15:27Z</time></trkpt>
<trkpt lat="46.56105000" lon="6.81301670"><ele>636</ele><time>2004-04-17T13:15:40Z</time></trkpt>
<trkpt lat="46.56058330" lon="6.81300000"><ele>637</ele><time>2004-04-17T13:15:52Z</time></trkpt>
<trkpt lat="46.56045000" lon="6.81306670"><ele>637</ele><time>2004-04-17T13:15:55Z</time></trkpt>
<trkpt lat="46.55998330" lon="6.81348330"><ele>637</ele><time>2004-04-17T13:16:07Z</time></trkpt>
<trkpt lat="46.55938330" lon="6.81376670"><ele>637</ele><time>2004-04-17T13:16:21Z</time></trkpt>
<trkpt lat="46.55895000" lon="6.81366670"><ele>639</ele><time>2004-04-17T13:16:32Z</time></trkpt>
<trkpt lat="46.55835000" lon="6.81323330"><ele>640</ele><time>2004-04-17T13:16:47Z</time></trkpt>
<trkpt lat="46.55778330" lon="6.81265000"><ele>640</ele><time>2004-04-17T13:17:02Z</time></trkpt>
<trkpt lat="46.55728330" lon="6.81221670"><ele>641</ele><time>2004-04-17T13:17:16Z</time></trkpt>
<trkpt lat="46.55680000" lon="6.81191670"><ele>641</ele><time>2004-04-17T13:17:29Z</time></trkpt>
<trkpt lat="46.55615000" lon="6.81166670"><ele>641</ele><time>2004-04-17T13:17:43Z</time></trkpt>
<trkpt lat="46.55536670" lon="6.81168330"><ele>640</ele><time>2004-04-17T13:17:59Z</time></trkpt>
<trkpt lat="46.55471670" lon="6.81183330"><ele>639</ele><time>2004-04-17T13:18:13Z</time></trkpt>
<trkpt lat="46.55408330" lon="6.81188330"><ele>641</ele><time>2004-04-17T13:18:33Z</time></trkpt>
<trkpt lat="46.55356670" lon="6.81181670"><ele>643</ele><time>2004-04-17T13:18:50Z</time></trkpt>
<trkpt lat="46.55318330" lon="6.81151670"><ele>645</ele><time>2004-04-17T13:19:03Z</time></trkpt>
<trkpt lat="46.55293330" lon="6.81090000"><ele>646</ele><time>2004-04-17T13:19:17Z</time></trkpt>
<trkpt lat="46.55258330" lon="6.81016670"><ele>647</ele><time>2004-04-17T13:19:33Z</time></trkpt>
<trkpt lat="46.55230000" lon="6.80968330"><ele>650</ele><time>2004-04-17T13:19:46Z</time></trkpt>
<trkpt lat="46.55201670" lon="6.80930000"><ele>652</ele><time>2004-04-17T13:19:59Z</time></trkpt>
<trkpt lat="46.55128330" lon="6.80780000"><ele>661</ele><time>2004-04-17T13:20:36Z</time></trkpt>
<trkpt lat="46.55013330" lon="6.80635000"><ele>660</ele><time>2004-04-17T13:21:18Z</time></trkpt>
<trkpt lat="46.54940000" lon="6.80505000"><ele>660</ele><time>2004-04-17T13:21:38Z</time></trkpt>
<trkpt lat="46.54848330" lon="6.80370000"><ele>663</ele><time>2004-04-17T13:22:03Z</time></trkpt>
<trkpt lat="46.54595000" lon="6.80108330"><ele>664</ele><time>2004-04-17T13:23:42Z</time></trkpt>
<trkpt lat="46.54468330" lon="6.79948330"><ele>664</ele><time>2004-04-17T13:24:25Z</time></trkpt>
<trkpt lat="46.54433330" lon="6.79938330"><ele>664</ele><time>2004-04-17T13:24:41Z</time></trkpt>
<trkpt lat="46.54375000" lon="6.79888330"><ele>664</ele><time>2004-04-17T13:24:57Z</time></trkpt>
<trkpt lat="46.54348330" lon="6.79806670"><ele>664</ele><time>2004-04-17T13:25:18Z</time></trkpt>
<trkpt lat="46.54310000" lon="6.79785000"><ele>664</ele><time>2004-04-17T13:25:24Z</time></trkpt>
<trkpt lat="46.54288330" lon="6.79746670"><ele>664</ele><time>2004-04-17T13:25:37Z</time></trkpt>
<trkpt lat="46.54246670" lon="6.79701670"><ele>664</ele><time>2004-04-17T13:25:56Z</time></trkpt>
<trkpt lat="46.54135000" lon="6.79560000"><ele>668</ele><time>2004-04-17T13:26:52Z</time></trkpt>
<trkpt lat="46.54098330" lon="6.79525000"><ele>668</ele><time>2004-04-17T13:27:12Z</time></trkpt>
<trkpt lat="46.53995000" lon="6.79440000"><ele>669</ele><time>2004-04-17T13:27:50Z</time></trkpt>
<trkpt lat="46.53925000" lon="6.79355000"><ele>669</ele><time>2004-04-17T13:28:16Z</time></trkpt>
<trkpt lat="46.53925000" lon="6.79338330"><ele>668</ele><time>2004-04-17T13:28:27Z</time></trkpt>
<trkpt lat="46.53915000" lon="6.79298330"><ele>664</ele><time>2004-04-17T13:31:23Z</time></trkpt>
<trkpt lat="46.53945000" lon="6.79276670"><ele>662</ele><time>2004-04-17T13:31:29Z</time></trkpt>
<trkpt lat="46.53983330" lon="6.79188330"><ele>664</ele><time>2004-04-17T13:31:52Z</time></trkpt>
<trkpt lat="46.53983330" lon="6.79181670"><ele>664</ele><time>2004-04-17T13:31:55Z</time></trkpt>
<trkpt lat="46.53910000" lon="6.79131670"><ele>670</ele><time>2004-04-17T13:32:24Z</time></trkpt>
<trkpt lat="46.53863330" lon="6.79083330"><ele>670</ele><time>2004-04-17T13:32:43Z</time></trkpt>
<trkpt lat="46.53830000" lon="6.79001670"><ele>672</ele><time>2004-04-17T13:33:17Z</time></trkpt>
<trkpt lat="46.53821670" lon="6.78971670"><ele>676</ele><time>2004-04-17T13:33:30Z</time></trkpt>
<trkpt lat="46.53806670" lon="6.78875000"><ele>683</ele><time>2004-04-17T13:34:01Z</time></trkpt>
<trkpt lat="46.53781670" lon="6.78836670"><ele>684</ele><time>2004-04-17T13:34:12Z</time></trkpt>
<trkpt lat="46.53731670" lon="6.78793330"><ele>684</ele><time>2004-04-17T13:34:26Z</time></trkpt>
<trkpt lat="46.53718330" lon="6.78778330"><ele>685</ele><time>2004-04-17T13:34:30Z</time></trkpt>
<trkpt lat="46.53668330" lon="6.78738330"><ele>684</ele><time>2004-04-17T13:34:44Z</time></trkpt>
<trkpt lat="46.53613330" lon="6.78683330"><ele>686</ele><time>2004-04-17T13:35:05Z</time></trkpt>
<trkpt lat="46.53576670" lon="6.78636670"><ele>687</ele><time>2004-04-17T13:35:19Z</time></trkpt>
<trkpt lat="46.53541670" lon="6.78585000"><ele>689</ele><time>2004-04-17T13:35:34Z</time></trkpt>
<trkpt lat="46.53463330" lon="6.78436670"><ele>694</ele><time>2004-04-17T13:36:14Z</time></trkpt>
<trkpt lat="46.53435000" lon="6.78373330"><ele>697</ele><time>2004-04-17T13:36:34Z</time></trkpt>
<trkpt lat="46.53415000" lon="6.78340000"><ele>698</ele><time>2004-04-17T13:36:43Z</time></trkpt>
<trkpt lat="46.53375000" lon="6.78293330"><ele>697</ele><time>2004-04-17T13:36:56Z</time></trkpt>
<trkpt lat="46.53335000" lon="6.78261670"><ele>697</ele><time>2004-04-17T13:37:08Z</time></trkpt>
<trkpt lat="46.53255000" lon="6.78210000"><ele>698</ele><time>2004-04-17T13:37:34Z</time></trkpt>
<trkpt lat="46.53218330" lon="6.78180000"><ele>697</ele><time>2004-04-17T13:37:46Z</time></trkpt>
<trkpt lat="46.53186670" lon="6.78135000"><ele>699</ele><time>2004-04-17T13:37:58Z</time></trkpt>
<trkpt lat="46.53161670" lon="6.78081670"><ele>699</ele><time>2004-04-17T13:38:09Z</time></trkpt>
<trkpt lat="46.53128330" lon="6.78051670"><ele>697</ele><time>2004-04-17T13:38:15Z</time></trkpt>
<trkpt lat="46.53081670" lon="6.78045000"><ele>698</ele><time>2004-04-17T13:38:26Z</time></trkpt>
<trkpt lat="46.53045000" lon="6.78026670"><ele>699</ele><time>2004-04-17T13:38:37Z</time></trkpt>
<trkpt lat="46.52960000" lon="6.77958330"><ele>705</ele><time>2004-04-17T13:39:04Z</time></trkpt>
<trkpt lat="46.52908330" lon="6.77910000"><ele>708</ele><time>2004-04-17T13:39:22Z</time></trkpt>
<trkpt lat="46.52708330" lon="6.77761670"><ele>698</ele><time>2004-04-17T13:40:04Z</time></trkpt>
<trkpt lat="46.52648330" lon="6.77720000"><ele>694</ele><time>2004-04-17T13:40:14Z</time></trkpt>
<trkpt lat="46.52633330" lon="6.77681670"><ele>690</ele><time>2004-04-17T13:40:19Z</time></trkpt>
<trkpt lat="46.52665000" lon="6.77518330"><ele>684</ele><time>2004-04-17T13:40:32Z</time></trkpt>
<trkpt lat="46.52666670" lon="6.77481670"><ele>685</ele><time>2004-04-17T13:40:36Z</time></trkpt>
<trkpt lat="46.52658330" lon="6.77428330"><ele>687</ele><time>2004-04-17T13:40:45Z</time></trkpt>
<trkpt lat="46.52633330" lon="6.77358330"><ele>686</ele><time>2004-04-17T13:40:56Z</time></trkpt>
<trkpt lat="46.52635000" lon="6.77270000"><ele>680</ele><time>2004-04-17T13:41:06Z</time></trkpt>
<trkpt lat="46.52650000" lon="6.77223330"><ele>680</ele><time>2004-04-17T13:41:12Z</time></trkpt>
<trkpt lat="46.52648330" lon="6.77166670"><ele>681</ele><time>2004-04-17T13:41:21Z</time></trkpt>
<trkpt lat="46.52628330" lon="6.77090000"><ele>684</ele><time>2004-04-17T13:41:45Z</time></trkpt>
<trkpt lat="46.52590000" lon="6.77025000"><ele>688</ele><time>2004-04-17T13:42:05Z</time></trkpt>
<trkpt lat="46.52556670" lon="6.76945000"><ele>696</ele><time>2004-04-17T13:42:34Z</time></trkpt>
<trkpt lat="46.52530000" lon="6.76903330"><ele>698</ele><time>2004-04-17T13:42:50Z</time></trkpt>
<trkpt lat="46.52495000" lon="6.76883330"><ele>699</ele><time>2004-04-17T13:43:04Z</time></trkpt>
<trkpt lat="46.52450000" lon="6.76880000"><ele>702</ele><time>2004-04-17T13:43:20Z</time></trkpt>
<trkpt lat="46.52410000" lon="6.76853330"><ele>704</ele><time>2004-04-17T13:43:36Z</time></trkpt>
<trkpt lat="46.52381670" lon="6.76821670"><ele>706</ele><time>2004-04-17T13:43:48Z</time></trkpt>
<trkpt lat="46.52343330" lon="6.76785000"><ele>708</ele><time>2004-04-17T13:44:04Z</time></trkpt>
<trkpt lat="46.52283330" lon="6.76710000"><ele>712</ele><time>2004-04-17T13:44:35Z</time></trkpt>
<trkpt lat="46.52255000" lon="6.76668330"><ele>715</ele><time>2004-04-17T13:44:52Z</time></trkpt>
<trkpt lat="46.52208330" lon="6.76590000"><ele>720</ele><time>2004-04-17T13:45:22Z</time></trkpt>
<trkpt lat="46.52186670" lon="6.76541670"><ele>724</ele><time>2004-04-17T13:45:37Z</time></trkpt>
<trkpt lat="46.52165000" lon="6.76506670"><ele>725</ele><time>2004-04-17T13:45:50Z</time></trkpt>
<trkpt lat="46.52143330" lon="6.76478330"><ele>727</ele><time>2004-04-17T13:46:02Z</time></trkpt>
<trkpt lat="46.52118330" lon="6.76451670"><ele>730</ele><time>2004-04-17T13:46:16Z</time></trkpt>
<trkpt lat="46.52086670" lon="6.76403330"><ele>733</ele><time>2004-04-17T13:46:36Z</time></trkpt>
<trkpt lat="46.52073330" lon="6.76376670"><ele>733</ele><time>2004-04-17T13:46:51Z</time></trkpt>
<trkpt lat="46.52066670" lon="6.76345000"><ele>734</ele><time>2004-04-17T13:47:07Z</time></trkpt>
<trkpt lat="46.52071670" lon="6.76263330"><ele>738</ele><time>2004-04-17T13:47:35Z</time></trkpt>
<trkpt lat="46.52060000" lon="6.76216670"><ele>742</ele><time>2004-04-17T13:47:52Z</time></trkpt>
<trkpt lat="46.51993330" lon="6.76075000"><ele>745</ele><time>2004-04-17T13:48:33Z</time></trkpt>
<trkpt lat="46.51976670" lon="6.76045000"><ele>747</ele><time>2004-04-17T13:48:43Z</time></trkpt>
<trkpt lat="46.51948330" lon="6.76011670"><ele>750</ele><time>2004-04-17T13:48:58Z</time></trkpt>
<trkpt lat="46.51903330" lon="6.75966670"><ele>756</ele><time>2004-04-17T13:49:23Z</time></trkpt>
<trkpt lat="46.51878330" lon="6.75948330"><ele>759</ele><time>2004-04-17T13:49:36Z</time></trkpt>
<trkpt lat="46.51743330" lon="6.75885000"><ele>763</ele><time>2004-04-17T13:50:22Z</time></trkpt>
<trkpt lat="46.51701670" lon="6.75851670"><ele>765</ele><time>2004-04-17T13:50:36Z</time></trkpt>
<trkpt lat="46.51678330" lon="6.75816670"><ele>768</ele><time>2004-04-17T13:50:48Z</time></trkpt>
<trkpt lat="46.51590000" lon="6.75663330"><ele>774</ele><time>2004-04-17T13:51:33Z</time></trkpt>
<trkpt lat="46.51536670" lon="6.75560000"><ele>775</ele><time>2004-04-17T13:52:50Z</time></trkpt>
<trkpt lat="46.51498330" lon="6.75503330"><ele>779</ele><time>2004-04-17T13:53:14Z</time></trkpt>
<trkpt lat="46.51460000" lon="6.75425000"><ele>785</ele><time>2004-04-17T13:54:02Z</time></trkpt>
<trkpt lat="46.51443330" lon="6.75381670"><ele>785</ele><time>2004-04-17T13:54:21Z</time></trkpt>
<trkpt lat="46.51418330" lon="6.75338330"><ele>789</ele><time>2004-04-17T13:54:37Z</time></trkpt>
<trkpt lat="46.51363330" lon="6.75275000"><ele>790</ele><time>2004-04-17T13:55:00Z</time></trkpt>
<trkpt lat="46.51105000" lon="6.75143330"><ele>799</ele><time>2004-04-17T13:56:12Z</time></trkpt>
<trkpt lat="46.51028330" lon="6.75098330"><ele>800</ele><time>2004-04-17T13:56:35Z</time></trkpt>
<trkpt lat="46.50978330" lon="6.75103330"><ele>802</ele><time>2004-04-17T13:56:47Z</time></trkpt>
<trkpt lat="46.50956670" lon="6.75096670"><ele>803</ele><time>2004-04-17T13:56:52Z</time></trkpt>
<trkpt lat="46.50925000" lon="6.75063330"><ele>805</ele><time>2004-04-17T13:57:03Z</time></trkpt>
<trkpt lat="46.50896670" lon="6.75031670"><ele>807</ele><time>2004-04-17T13:57:13Z</time></trkpt>
<trkpt lat="46.50871670" lon="6.74995000"><ele>808</ele><time>2004-04-17T13:57:24Z</time></trkpt>
<trkpt lat="46.50833330" lon="6.74948330"><ele>805</ele><time>2004-04-17T13:57:33Z</time></trkpt>
<trkpt lat="46.50820000" lon="6.74935000"><ele>804</ele><time>2004-04-17T13:57:35Z</time></trkpt>
<trkpt lat="46.50795000" lon="6.74925000"><ele>803</ele><time>2004-04-17T13:57:40Z</time></trkpt>
<trkpt lat="46.50773330" lon="6.74906670"><ele>808</ele><time>2004-04-17T13:59:02Z</time></trkpt>
<trkpt lat="46.50768330" lon="6.74906670"><ele>808</ele><time>2004-04-17T13:59:05Z</time></trkpt>
<trkpt lat="46.50796670" lon="6.75030000"><ele>807</ele><time>2004-04-17T13:59:38Z</time></trkpt>
<trkpt lat="46.50805000" lon="6.75090000"><ele>805</ele><time>2004-04-17T13:59:48Z</time></trkpt>
<trkpt lat="46.50796670" lon="6.75198330"><ele>802</ele><time>2004-04-17T14:00:00Z</time></trkpt>
<trkpt lat="46.50785000" lon="6.75286670"><ele>800</ele><time>2004-04-17T14:00:08Z</time></trkpt>
<trkpt lat="46.50795000" lon="6.75360000"><ele>795</ele><time>2004-04-17T14:00:14Z</time></trkpt>
<trkpt lat="46.50803330" lon="6.75380000"><ele>793</ele><time>2004-04-17T14:00:16Z</time></trkpt>
<trkpt lat="46.50801670" lon="6.75425000"><ele>788</ele><time>2004-04-17T14:00:21Z</time></trkpt>
<trkpt lat="46.50765000" lon="6.75421670"><ele>784</ele><time>2004-04-17T14:00:26Z</time></trkpt>
<trkpt lat="46.50700000" lon="6.75441670"><ele>774</ele><time>2004-04-17T14:00:34Z</time></trkpt>
<trkpt lat="46.50678330" lon="6.75463330"><ele>773</ele><time>2004-04-17T14:00:37Z</time></trkpt>
<trkpt lat="46.50630000" lon="6.75485000"><ele>770</ele><time>2004-04-17T14:00:42Z</time></trkpt>
<trkpt lat="46.50596670" lon="6.75525000"><ele>767</ele><time>2004-04-17T14:00:47Z</time></trkpt>
<trkpt lat="46.50588330" lon="6.75553330"><ele>766</ele><time>2004-04-17T14:00:49Z</time></trkpt>
<trkpt lat="46.50580000" lon="6.75603330"><ele>765</ele><time>2004-04-17T14:00:53Z</time></trkpt>
<trkpt lat="46.50568330" lon="6.75641670"><ele>763</ele><time>2004-04-17T14:00:57Z</time></trkpt>
<trkpt lat="46.50548330" lon="6.75686670"><ele>762</ele><time>2004-04-17T14:01:02Z</time></trkpt>
<trkpt lat="46.50548330" lon="6.75775000"><ele>760</ele><time>2004-04-17T14:01:08Z</time></trkpt>
<trkpt lat="46.50551670" lon="6.75895000"><ele>742</ele><time>2004-04-17T14:01:16Z</time></trkpt>
<trkpt lat="46.50535000" lon="6.75961670"><ele>734</ele><time>2004-04-17T14:01:22Z</time></trkpt>
<trkpt lat="46.50441670" lon="6.76091670"><ele>731</ele><time>2004-04-17T14:01:35Z</time></trkpt>
<trkpt lat="46.50483330" lon="6.76111670"><ele>729</ele><time>2004-04-17T14:03:09Z</time></trkpt>
<trkpt lat="46.50535000" lon="6.76238330"><ele>724</ele><time>2004-04-17T14:04:45Z</time></trkpt>
<trkpt lat="46.50593330" lon="6.76413330"><ele>718</ele><time>2004-04-17T14:05:12Z</time></trkpt>
<trkpt lat="46.50643330" lon="6.76758330"><ele>715</ele><time>2004-04-17T14:05:37Z</time></trkpt>
<trkpt lat="46.50695000" lon="6.76880000"><ele>707</ele><time>2004-04-17T14:05:55Z</time></trkpt>
<trkpt lat="46.50691670" lon="6.76891670"><ele>701</ele><time>2004-04-17T14:06:02Z</time></trkpt>
</trkseg></trk></gpx>